Terminal Aerodrome Forecast
Issued by NWS Twin Cities, MN

Home | Current Version | Previous Version | Text Only | Print | Product List | Glossary On
Versions: 1 2 3 4 5 6 7 8 9 10 11 12 13 14 15 16 17 18 19 20 21 22 23 24 25 26 27
000
FTUS43 KMPX 041833 AAA
TAFSTC
TAF AMD
KSTC 041833Z 0419/0518 15011KT P6SM SCT030 SCT120
     FM042200 16012KT P6SM VCSH BKN120
     FM050600 15008KT P6SM SCT040 OVC120
      TEMPO 0509/0513 5SM BR OVC100=

USA.gov is the U.S. government's official web portal to all federal, state and local government web resources and services.